sensor_id;sensor_type;location;lat;lon;timestamp;P1;durP1;ratioP1;P2;durP2;ratioP2
41556;SDS011;27720;51.992;5.890;2024-03-23T18:37:12;2.92;;;0.47;;
41556;SDS011;27720;51.992;5.890;2024-03-23T18:39:37;1.10;;;0.50;;
41556;SDS011;27720;51.992;5.890;2024-03-23T18:42:03;1.15;;;0.50;;
41556;SDS011;27720;51.992;5.890;2024-03-23T18:44:30;0.68;;;0.40;;
41556;SDS011;27720;51.992;5.890;2024-03-23T18:46:56;0.93;;;0.52;;
41556;SDS011;27720;51.992;5.890;2024-03-23T18:49:22;1.00;;;0.43;;
41556;SDS011;27720;51.992;5.890;2024-03-23T18:51:47;1.75;;;0.68;;
41556;SDS011;27720;51.992;5.890;2024-03-23T18:54:13;1.02;;;0.55;;
41556;SDS011;27720;51.992;5.890;2024-03-23T18:56:38;3.03;;;0.60;;
41556;SDS011;27720;51.992;5.890;2024-03-23T18:59:04;0.77;;;0.50;;
41556;SDS011;27720;51.992;5.890;2024-03-23T19:01:30;3.38;;;0.82;;
41556;SDS011;27720;51.992;5.890;2024-03-23T19:03:56;0.73;;;0.50;;
41556;SDS011;27720;51.992;5.890;2024-03-23T19:06:21;1.75;;;0.40;;
41556;SDS011;27720;51.992;5.890;2024-03-23T19:08:47;0.93;;;0.40;;
41556;SDS011;27720;51.992;5.890;2024-03-23T19:11:13;4.93;;;0.80;;
41556;SDS011;27720;51.992;5.890;2024-03-23T19:13:38;2.22;;;0.50;;
41556;SDS011;27720;51.992;5.890;2024-03-23T19:16:04;2.63;;;0.60;;
41556;SDS011;27720;51.992;5.890;2024-03-23T19:18:33;1.02;;;0.38;;
41556;SDS011;27720;51.992;5.890;2024-03-23T19:21:02;1.13;;;0.40;;
41556;SDS011;27720;51.992;5.890;2024-03-23T19:23:28;0.50;;;0.50;;
41556;SDS011;27720;51.992;5.890;2024-03-23T19:26:01;2.60;;;0.50;;
41556;SDS011;27720;51.992;5.890;2024-03-23T19:28:28;0.50;;;0.43;;
41556;SDS011;27720;51.992;5.890;2024-03-23T19:30:56;5.57;;;0.80;;
41556;SDS011;27720;51.992;5.890;2024-03-23T19:33:25;2.83;;;0.60;;
41556;SDS011;27720;51.992;5.890;2024-03-23T19:35:54;0.20;;;0.20;;
41556;SDS011;27720;51.992;5.890;2024-03-23T19:38:21;3.50;;;0.50;;
41556;SDS011;27720;51.992;5.890;2024-03-23T19:40:53;4.65;;;0.45;;
41556;SDS011;27720;51.992;5.890;2024-03-23T19:43:22;1.30;;;0.50;;
41556;SDS011;27720;51.992;5.890;2024-03-23T19:45:49;4.43;;;0.60;;
41556;SDS011;27720;51.992;5.890;2024-03-23T19:48:15;4.50;;;0.63;;
41556;SDS011;27720;51.992;5.890;2024-03-23T19:50:41;2.08;;;0.70;;
41556;SDS011;27720;51.992;5.890;2024-03-23T19:53:07;1.88;;;0.52;;
41556;SDS011;27720;51.992;5.890;2024-03-23T19:55:33;1.92;;;0.70;;
41556;SDS011;27720;51.992;5.890;2024-03-23T19:58:03;4.05;;;0.55;;
41556;SDS011;27720;51.992;5.890;2024-03-23T20:00:29;0.98;;;0.60;;
41556;SDS011;27720;51.992;5.890;2024-03-23T20:02:55;1.92;;;0.70;;
41556;SDS011;27720;51.992;5.890;2024-03-23T20:05:20;2.58;;;0.60;;
41556;SDS011;27720;51.992;5.890;2024-03-23T20:07:46;3.40;;;0.68;;
41556;SDS011;27720;51.992;5.890;2024-03-23T20:10:12;1.50;;;0.60;;
41556;SDS011;27720;51.992;5.890;2024-03-23T20:12:38;1.75;;;0.70;;
41556;SDS011;27720;51.992;5.890;2024-03-23T20:15:03;2.78;;;0.75;;
41556;SDS011;27720;51.992;5.890;2024-03-23T20:17:30;4.22;;;0.70;;
41556;SDS011;27720;51.992;5.890;2024-03-23T20:19:56;1.67;;;0.80;;
41556;SDS011;27720;51.992;5.890;2024-03-23T20:22:21;3.80;;;0.90;;
41556;SDS011;27720;51.992;5.890;2024-03-23T20:24:47;1.83;;;0.60;;
41556;SDS011;27720;51.992;5.890;2024-03-23T20:27:15;2.10;;;0.85;;
41556;SDS011;27720;51.992;5.890;2024-03-23T20:29:41;2.55;;;0.75;;
41556;SDS011;27720;51.992;5.890;2024-03-23T20:32:06;4.13;;;1.05;;
41556;SDS011;27720;51.992;5.890;2024-03-23T20:34:33;4.15;;;0.93;;
41556;SDS011;27720;51.992;5.890;2024-03-23T20:36:58;5.20;;;0.70;;
41556;SDS011;27720;51.992;5.890;2024-03-23T20:39:24;0.95;;;0.73;;
41556;SDS011;27720;51.992;5.890;2024-03-23T20:41:50;4.90;;;0.73;;
41556;SDS011;27720;51.992;5.890;2024-03-23T20:44:15;3.38;;;1.10;;
41556;SDS011;27720;51.992;5.890;2024-03-23T20:46:41;5.63;;;1.00;;
41556;SDS011;27720;51.992;5.890;2024-03-23T20:49:07;2.47;;;0.73;;
41556;SDS011;27720;51.992;5.890;2024-03-23T20:51:34;1.50;;;0.68;;
41556;SDS011;27720;51.992;5.890;2024-03-23T20:54:00;5.55;;;0.75;;
41556;SDS011;27720;51.992;5.890;2024-03-23T20:56:33;2.35;;;0.70;;
41556;SDS011;27720;51.992;5.890;2024-03-23T20:58:59;0.65;;;0.43;;
41556;SDS011;27720;51.992;5.890;2024-03-23T21:01:24;2.60;;;0.88;;
41556;SDS011;27720;51.992;5.890;2024-03-23T21:03:50;1.92;;;0.90;;
41556;SDS011;27720;51.992;5.890;2024-03-23T21:06:16;1.98;;;0.77;;
41556;SDS011;27720;51.992;5.890;2024-03-23T21:08:44;1.38;;;0.70;;
41556;SDS011;27720;51.992;5.890;2024-03-23T21:11:11;1.48;;;0.57;;
41556;SDS011;27720;51.992;5.890;2024-03-23T21:13:40;3.50;;;0.77;;
41556;SDS011;27720;51.992;5.890;2024-03-23T21:16:06;3.38;;;1.00;;
41556;SDS011;27720;51.992;5.890;2024-03-23T21:18:32;1.83;;;1.05;;
41556;SDS011;27720;51.992;5.890;2024-03-23T21:20:59;4.65;;;0.70;;
41556;SDS011;27720;51.992;5.890;2024-03-23T21:23:26;1.00;;;0.60;;
41556;SDS011;27720;51.992;5.890;2024-03-23T21:25:56;1.83;;;0.52;;
41556;SDS011;27720;51.992;5.890;2024-03-23T21:28:23;2.40;;;0.80;;
41556;SDS011;27720;51.992;5.890;2024-03-23T21:30:49;2.90;;;1.10;;
41556;SDS011;27720;51.992;5.890;2024-03-23T21:33:15;3.17;;;0.90;;
41556;SDS011;27720;51.992;5.890;2024-03-23T21:35:41;1.13;;;0.55;;
41556;SDS011;27720;51.992;5.890;2024-03-23T21:38:07;2.55;;;0.70;;
41556;SDS011;27720;51.992;5.890;2024-03-23T21:40:33;0.73;;;0.52;;
41556;SDS011;27720;51.992;5.890;2024-03-23T21:42:58;1.65;;;0.68;;
41556;SDS011;27720;51.992;5.890;2024-03-23T21:45:24;1.08;;;0.60;;
41556;SDS011;27720;51.992;5.890;2024-03-23T21:47:50;1.63;;;0.80;;
41556;SDS011;27720;51.992;5.890;2024-03-23T21:50:16;0.77;;;0.52;;
41556;SDS011;27720;51.992;5.890;2024-03-23T21:52:42;1.95;;;0.90;;
41556;SDS011;27720;51.992;5.890;2024-03-23T21:55:07;1.48;;;0.70;;
41556;SDS011;27720;51.992;5.890;2024-03-23T21:57:34;0.82;;;0.50;;
41556;SDS011;27720;51.992;5.890;2024-03-23T22:00:01;1.42;;;0.60;;
41556;SDS011;27720;51.992;5.890;2024-03-23T22:02:27;3.10;;;0.90;;
41556;SDS011;27720;51.992;5.890;2024-03-23T22:04:53;2.25;;;0.80;;
41556;SDS011;27720;51.992;5.890;2024-03-23T22:07:19;1.30;;;0.52;;
41556;SDS011;27720;51.992;5.890;2024-03-23T22:09:50;1.70;;;0.90;;
41556;SDS011;27720;51.992;5.890;2024-03-23T22:12:16;2.13;;;0.68;;
41556;SDS011;27720;51.992;5.890;2024-03-23T22:14:41;3.30;;;0.90;;
41556;SDS011;27720;51.992;5.890;2024-03-23T22:17:07;3.15;;;0.80;;
41556;SDS011;27720;51.992;5.890;2024-03-23T22:19:33;1.83;;;0.70;;
41556;SDS011;27720;51.992;5.890;2024-03-23T22:21:59;3.85;;;0.88;;
41556;SDS011;27720;51.992;5.890;2024-03-23T22:24:25;2.58;;;0.60;;
41556;SDS011;27720;51.992;5.890;2024-03-23T22:26:50;1.88;;;0.80;;
41556;SDS011;27720;51.992;5.890;2024-03-23T22:29:16;1.67;;;0.93;;
41556;SDS011;27720;51.992;5.890;2024-03-23T22:31:45;1.67;;;0.75;;
41556;SDS011;27720;51.992;5.890;2024-03-23T22:34:10;3.05;;;1.25;;
41556;SDS011;27720;51.992;5.890;2024-03-23T22:36:36;5.45;;;1.02;;
41556;SDS011;27720;51.992;5.890;2024-03-23T22:39:02;2.03;;;0.70;;
41556;SDS011;27720;51.992;5.890;2024-03-23T22:41:29;3.70;;;0.90;;
41556;SDS011;27720;51.992;5.890;2024-03-23T22:43:55;3.13;;;0.70;;
41556;SDS011;27720;51.992;5.890;2024-03-23T22:46:20;2.17;;;0.90;;
41556;SDS011;27720;51.992;5.890;2024-03-23T22:48:46;2.72;;;0.90;;
41556;SDS011;27720;51.992;5.890;2024-03-23T22:51:12;1.80;;;1.10;;
41556;SDS011;27720;51.992;5.890;2024-03-23T22:53:38;3.03;;;1.02;;
41556;SDS011;27720;51.992;5.890;2024-03-23T22:56:04;3.25;;;0.98;;
41556;SDS011;27720;51.992;5.890;2024-03-23T22:58:30;5.57;;;1.52;;
41556;SDS011;27720;51.992;5.890;2024-03-23T23:00:56;5.93;;;1.67;;
41556;SDS011;27720;51.992;5.890;2024-03-23T23:03:23;5.45;;;1.45;;
41556;SDS011;27720;51.992;5.890;2024-03-23T23:05:57;6.93;;;1.55;;
41556;SDS011;27720;51.992;5.890;2024-03-23T23:08:24;2.45;;;1.05;;
41556;SDS011;27720;51.992;5.890;2024-03-23T23:10:50;6.45;;;1.20;;
41556;SDS011;27720;51.992;5.890;2024-03-23T23:13:16;5.47;;;1.38;;
41556;SDS011;27720;51.992;5.890;2024-03-23T23:15:42;1.48;;;0.90;;
41556;SDS011;27720;51.992;5.890;2024-03-23T23:18:09;2.40;;;1.40;;
41556;SDS011;27720;51.992;5.890;2024-03-23T23:20:38;1.48;;;0.82;;
41556;SDS011;27720;51.992;5.890;2024-03-23T23:23:05;1.58;;;1.02;;
41556;SDS011;27720;51.992;5.890;2024-03-23T23:25:33;1.45;;;0.90;;
41556;SDS011;27720;51.992;5.890;2024-03-23T23:27:59;4.03;;;1.23;;
41556;SDS011;27720;51.992;5.890;2024-03-23T23:30:25;3.88;;;1.30;;
41556;SDS011;27720;51.992;5.890;2024-03-23T23:32:51;7.25;;;1.30;;
41556;SDS011;27720;51.992;5.890;2024-03-23T23:35:17;3.28;;;1.50;;
41556;SDS011;27720;51.992;5.890;2024-03-23T23:37:42;2.92;;;1.52;;
41556;SDS011;27720;51.992;5.890;2024-03-23T23:40:08;3.55;;;1.10;;
41556;SDS011;27720;51.992;5.890;2024-03-23T23:42:35;5.82;;;1.30;;
41556;SDS011;27720;51.992;5.890;2024-03-23T23:45:01;2.15;;;1.17;;
41556;SDS011;27720;51.992;5.890;2024-03-23T23:47:27;3.22;;;1.35;;
41556;SDS011;27720;51.992;5.890;2024-03-23T23:49:52;2.03;;;0.95;;
41556;SDS011;27720;51.992;5.890;2024-03-23T23:52:18;1.92;;;0.95;;
41556;SDS011;27720;51.992;5.890;2024-03-23T23:54:44;4.75;;;0.95;;
41556;SDS011;27720;51.992;5.890;2024-03-23T23:57:10;3.22;;;1.42;;
41556;SDS011;27720;51.992;5.890;2024-03-23T23:59:35;4.10;;;0.95;;
